YQD weather

The Pas Airport
The Pas, Manitoba, Canada

Public forecast

Using degrees Celsius for public forecast. Weather courtesy of forecast.io.

METAR (pilot weather report)

Retrieved 2019/07/15 17:00 UTC (26 minutes ago):

CYQD 151700Z AUTO 31008KT 9SM SCT022 BKN030 21/17 A2965 RMK SLP044 DENSITY ALT 2000FT

TAF (pilot weather forecast)

Retrieved 2019/07/15 13:39 UTC (4 hours ago):

TAF CYQD 151238Z 1513/1601 VRB03KT P6SM SCT030 BKN140 TEMPO 1513/1601 P6SM -SHRA VCTS BKN030CB BECMG 1513/1515 30012KT RMK FCST BASED ON AUTO OBS. NXT FCST BY 151900Z